Time;durP1;ratioP1;P1;durP2;ratioP2;P2;SDS_P1;SDS_P2;PMS_P1;PMS_P2;Temp;Humidity;BMP_temperature;BMP_pressure;BME280_temperature;BME280_humidity;BME280_pressure;Samples;Min_cycle;Max_cycle;Signal;HPM_P1;HPM_P2
2021/01/25 00:01:13;;;;;;;16.08;6.72;;;;;;;;;;5087847;28;20043;-67
2021/01/25 00:03:39;;;;;;;13.77;5.50;;;;;;;;;;5087854;28;20031;-67
2021/01/25 00:06:04;;;;;;;19.90;6.20;;;;;;;;;;5097083;22;20035;-67
2021/01/25 00:08:29;;;;;;;13.85;4.28;;;;;;;;;;5087319;28;20524;-67
2021/01/25 00:10:54;;;;;;;10.98;5.38;;;;;;;;;;5084613;28;20103;-67
2021/01/25 00:13:19;;;;;;;10.18;4.47;;;;;;;;;;5084590;28;20036;-67
2021/01/25 00:15:48;;;;;;;11.57;4.88;;;;;;;;;;5077938;28;20043;-67
2021/01/25 00:18:13;;;;;;;5.75;2.63;;;;;;;;;;5071640;28;20024;-67
2021/01/25 00:20:39;;;;;;;8.15;3.55;;;;;;;;;;5075495;28;20499;-67
2021/01/25 00:23:04;;;;;;;6.95;3.55;;;;;;;;;;5077444;28;20780;-67
2021/01/25 00:25:29;;;;;;;14.97;4.80;;;;;;;;;;5075223;28;20025;-66
2021/01/25 00:27:54;;;;;;;10.13;4.70;;;;;;;;;;5077076;28;20292;-68
2021/01/25 00:30:19;;;;;;;11.93;5.53;;;;;;;;;;5080007;28;20032;-67
2021/01/25 00:32:45;;;;;;;18.00;6.13;;;;;;;;;;5077026;28;20131;-67
2021/01/25 00:35:11;;;;;;;12.15;5.50;;;;;;;;;;5079090;28;20023;-67
2021/01/25 00:37:36;;;;;;;8.88;4.85;;;;;;;;;;5078845;28;20502;-67
2021/01/25 00:40:02;;;;;;;17.27;4.88;;;;;;;;;;5072868;28;20434;-68
2021/01/25 00:42:27;;;;;;;8.93;4.47;;;;;;;;;;5075328;28;20025;-67
2021/01/25 00:44:52;;;;;;;11.70;4.90;;;;;;;;;;5074789;28;20389;-67
2021/01/25 00:47:18;;;;;;;33.40;4.03;;;;;;;;;;5075658;28;20051;-67
2021/01/25 00:49:43;;;;;;;12.45;4.50;;;;;;;;;;5075895;28;20243;-69
2021/01/25 00:52:08;;;;;;;13.73;5.97;;;;;;;;;;5075779;28;20055;-66
2021/01/25 00:54:33;;;;;;;10.15;4.88;;;;;;;;;;5075463;28;20730;-67
2021/01/25 00:56:58;;;;;;;14.90;5.93;;;;;;;;;;5076601;28;20036;-67
2021/01/25 00:59:24;;;;;;;12.02;4.72;;;;;;;;;;5075233;28;20477;-67
2021/01/25 01:01:49;;;;;;;13.02;5.75;;;;;;;;;;5075576;28;20032;-67
2021/01/25 01:04:14;;;;;;;13.30;3.97;;;;;;;;;;5075203;28;20035;-67
2021/01/25 01:06:40;;;;;;;7.07;3.92;;;;;;;;;;5074694;28;20558;-67
2021/01/25 01:09:05;;;;;;;10.73;4.38;;;;;;;;;;5077194;28;20016;-67
2021/01/25 01:11:30;;;;;;;9.23;3.72;;;;;;;;;;5073192;28;20024;-67
2021/01/25 01:13:55;;;;;;;12.27;5.28;;;;;;;;;;5072985;28;20012;-68
2021/01/25 01:16:21;;;;;;;13.30;4.78;;;;;;;;;;5074274;28;20047;-67
2021/01/25 01:18:46;;;;;;;9.90;5.20;;;;;;;;;;5071383;28;20473;-67
2021/01/25 01:21:11;;;;;;;14.43;6.22;;;;;;;;;;5077122;28;20044;-67
2021/01/25 01:23:36;;;;;;;25.33;6.03;;;;;;;;;;5073854;28;20426;-67
2021/01/25 01:26:01;;;;;;;10.65;5.25;;;;;;;;;;5075395;28;20250;-67
2021/01/25 01:28:26;;;;;;;12.27;5.82;;;;;;;;;;5076290;28;20024;-67
2021/01/25 01:30:52;;;;;;;17.90;5.35;;;;;;;;;;5079123;28;20055;-67
2021/01/25 01:33:17;;;;;;;19.00;5.85;;;;;;;;;;5073609;28;20485;-67
2021/01/25 01:35:42;;;;;;;11.82;5.47;;;;;;;;;;5072559;28;20020;-67
2021/01/25 01:38:07;;;;;;;5.63;2.47;;;;;;;;;;5072448;28;20119;-67
2021/01/25 01:40:32;;;;;;;9.95;4.93;;;;;;;;;;5075810;28;20025;-67
2021/01/25 01:42:58;;;;;;;16.10;5.70;;;;;;;;;;5072529;28;20039;-67
2021/01/25 01:45:23;;;;;;;9.48;3.92;;;;;;;;;;5071250;28;20016;-67
2021/01/25 01:47:48;;;;;;;13.73;4.35;;;;;;;;;;5075769;28;20019;-67
2021/01/25 01:50:13;;;;;;;5.20;2.75;;;;;;;;;;5057319;28;20013;-67
2021/01/25 01:52:39;;;;;;;6.40;3.05;;;;;;;;;;5077313;28;20028;-67
2021/01/25 01:55:05;;;;;;;7.82;3.67;;;;;;;;;;5073100;28;20114;-67
2021/01/25 01:57:32;;;;;;;4.93;2.33;;;;;;;;;;5074909;28;20032;-67
2021/01/25 01:59:57;;;;;;;18.42;4.57;;;;;;;;;;5075030;28;20148;-67
2021/01/25 02:02:22;;;;;;;5.25;2.50;;;;;;;;;;5067865;28;22247;-67
2021/01/25 02:04:48;;;;;;;8.43;4.53;;;;;;;;;;5064779;28;20035;-67
2021/01/25 02:07:14;;;;;;;10.40;5.30;;;;;;;;;;5071117;28;20539;-67
2021/01/25 02:09:40;;;;;;;10.20;4.10;;;;;;;;;;5073617;28;20092;-67
2021/01/25 02:12:07;;;;;;;8.13;3.55;;;;;;;;;;5075906;28;20024;-67
2021/01/25 02:14:32;;;;;;;8.77;4.10;;;;;;;;;;5073483;28;20027;-67
2021/01/25 02:16:57;;;;;;;8.98;3.40;;;;;;;;;;5072912;28;20028;-67
2021/01/25 02:19:49;;;;;;;7.00;2.90;;;;;;;;;;5071910;28;20043;-67
2021/01/25 02:22:33;;;;;;;9.57;3.80;;;;;;;;;;5029615;28;20032;-67
2021/01/25 02:25:01;;;;;;;4.38;2.45;;;;;;;;;;5055928;28;20034;-67
2021/01/25 02:27:26;;;;;;;8.07;4.55;;;;;;;;;;5076862;28;20008;-67
2021/01/25 02:29:52;;;;;;;4.70;2.55;;;;;;;;;;5072120;28;20047;-67
2021/01/25 02:32:17;;;;;;;7.70;3.90;;;;;;;;;;5074256;28;20312;-67
2021/01/25 02:34:42;;;;;;;5.65;2.95;;;;;;;;;;5072743;28;20028;-67
2021/01/25 02:37:09;;;;;;;7.65;3.38;;;;;;;;;;5068305;28;20016;-67
2021/01/25 02:39:35;;;;;;;4.93;3.05;;;;;;;;;;5074167;28;20020;-67
2021/01/25 02:42:01;;;;;;;12.20;3.30;;;;;;;;;;5075064;28;20082;-67
2021/01/25 02:44:26;;;;;;;8.32;4.50;;;;;;;;;;5071855;28;20016;-67
2021/01/25 02:46:52;;;;;;;6.20;3.45;;;;;;;;;;5075226;28;20384;-67
2021/01/25 02:49:17;;;;;;;14.30;5.43;;;;;;;;;;5069985;28;20741;-67
2021/01/25 02:51:42;;;;;;;9.88;4.88;;;;;;;;;;5074683;28;20020;-67
2021/01/25 02:54:08;;;;;;;10.75;5.68;;;;;;;;;;5071902;28;20093;-67
2021/01/25 02:56:33;;;;;;;13.20;5.57;;;;;;;;;;5074667;28;20392;-67
2021/01/25 02:58:58;;;;;;;7.57;3.10;;;;;;;;;;5072961;28;20388;-67
2021/01/25 03:01:25;;;;;;;9.20;4.88;;;;;;;;;;5069094;28;20048;-67
2021/01/25 03:03:51;;;;;;;5.40;2.80;;;;;;;;;;5072077;28;20033;-67
2021/01/25 03:06:16;;;;;;;6.80;3.53;;;;;;;;;;5075984;28;20485;-67
2021/01/25 03:08:44;;;;;;;8.80;4.13;;;;;;;;;;5066302;28;20509;-67
2021/01/25 03:11:09;;;;;;;8.77;5.18;;;;;;;;;;5070558;28;20024;-67
2021/01/25 03:13:34;;;;;;;4.55;2.72;;;;;;;;;;5073588;28;20035;-67
2021/01/25 03:16:01;;;;;;;12.30;5.22;;;;;;;;;;5073081;28;20020;-67
2021/01/25 03:18:26;;;;;;;5.05;2.88;;;;;;;;;;5076220;28;20055;-67
2021/01/25 03:20:52;;;;;;;13.38;5.22;;;;;;;;;;5074532;28;20044;-67
2021/01/25 03:23:18;;;;;;;12.77;5.13;;;;;;;;;;5073833;28;20024;-67
2021/01/25 03:25:43;;;;;;;3.13;1.98;;;;;;;;;;5071332;28;20016;-67
2021/01/25 03:28:09;;;;;;;8.85;4.85;;;;;;;;;;5071303;28;20013;-67
2021/01/25 03:30:35;;;;;;;9.45;4.95;;;;;;;;;;5070084;28;20047;-67
2021/01/25 03:33:00;;;;;;;10.70;5.28;;;;;;;;;;5070121;28;20016;-67
2021/01/25 03:35:25;;;;;;;9.95;3.30;;;;;;;;;;5066272;28;20043;-67
2021/01/25 03:37:50;;;;;;;12.05;5.93;;;;;;;;;;5072702;28;20104;-67
2021/01/25 03:40:15;;;;;;;12.98;4.65;;;;;;;;;;5073704;28;20033;-67
2021/01/25 03:42:41;;;;;;;13.93;6.03;;;;;;;;;;5071640;28;20027;-68
2021/01/25 03:45:06;;;;;;;12.85;5.70;;;;;;;;;;5073496;28;20021;-67
2021/01/25 03:47:31;;;;;;;10.18;4.80;;;;;;;;;;5070081;28;20024;-67
2021/01/25 03:49:57;;;;;;;10.15;5.57;;;;;;;;;;5052635;28;20016;-67
2021/01/25 03:52:22;;;;;;;8.73;3.60;;;;;;;;;;5070467;28;20063;-67
2021/01/25 03:54:48;;;;;;;10.40;5.07;;;;;;;;;;5070908;28;20020;-67
2021/01/25 03:57:13;;;;;;;12.68;4.88;;;;;;;;;;5071313;28;20419;-67
2021/01/25 03:59:38;;;;;;;13.98;5.63;;;;;;;;;;5076366;28;20058;-67
2021/01/25 04:02:03;;;;;;;14.82;5.53;;;;;;;;;;5071557;28;20064;-68
2021/01/25 04:04:28;;;;;;;11.82;5.95;;;;;;;;;;5071549;28;20097;-68
2021/01/25 04:06:53;;;;;;;12.75;6.20;;;;;;;;;;5069177;28;20434;-67
2021/01/25 04:09:19;;;;;;;8.90;4.25;;;;;;;;;;5072326;28;20092;-68
2021/01/25 04:11:45;;;;;;;15.48;7.03;;;;;;;;;;5069969;28;20026;-68
2021/01/25 04:14:10;;;;;;;13.13;5.07;;;;;;;;;;5069477;28;20024;-68
2021/01/25 04:16:35;;;;;;;17.13;8.15;;;;;;;;;;5072553;28;20108;-68
2021/01/25 04:19:02;;;;;;;14.88;7.75;;;;;;;;;;5072845;28;20521;-68
2021/01/25 04:21:27;;;;;;;10.80;5.30;;;;;;;;;;5066193;28;20027;-68
2021/01/25 04:23:52;;;;;;;14.60;7.03;;;;;;;;;;5076091;28;20025;-68
2021/01/25 04:26:17;;;;;;;13.85;8.05;;;;;;;;;;5078865;28;20027;-68
2021/01/25 04:28:43;;;;;;;13.02;6.90;;;;;;;;;;5075895;28;20086;-68
2021/01/25 04:31:08;;;;;;;20.13;6.88;;;;;;;;;;5077396;28;20099;-68
2021/01/25 04:33:33;;;;;;;18.98;7.70;;;;;;;;;;5071853;28;20111;-67
2021/01/25 04:35:58;;;;;;;15.43;8.43;;;;;;;;;;5075888;28;20017;-68
2021/01/25 04:38:23;;;;;;;20.33;8.88;;;;;;;;;;5077005;28;20035;-68
2021/01/25 04:40:48;;;;;;;17.60;8.03;;;;;;;;;;5075744;28;20094;-68
2021/01/25 04:43:14;;;;;;;16.88;8.82;;;;;;;;;;5056508;28;20282;-68
2021/01/25 04:45:39;;;;;;;18.40;8.90;;;;;;;;;;5075138;28;20021;-68
2021/01/25 04:48:05;;;;;;;21.13;9.38;;;;;;;;;;5076725;28;20031;-68
2021/01/25 04:50:30;;;;;;;17.83;9.48;;;;;;;;;;5077458;28;20615;-68
2021/01/25 04:52:56;;;;;;;18.15;9.45;;;;;;;;;;5076074;28;20114;-68
2021/01/25 04:55:22;;;;;;;9.23;5.03;;;;;;;;;;5074760;28;20036;-68
2021/01/25 04:57:47;;;;;;;20.10;9.95;;;;;;;;;;5074842;28;20024;-68
2021/01/25 05:00:13;;;;;;;19.08;8.35;;;;;;;;;;5074295;28;20029;-68
2021/01/25 05:02:39;;;;;;;16.70;8.32;;;;;;;;;;5071389;28;20021;-68
2021/01/25 05:05:05;;;;;;;22.10;9.25;;;;;;;;;;5067463;28;20015;-68
2021/01/25 05:07:30;;;;;;;21.75;10.00;;;;;;;;;;5068660;28;20021;-68
2021/01/25 05:09:56;;;;;;;21.90;9.25;;;;;;;;;;5074952;28;20063;-68
2021/01/25 05:12:21;;;;;;;21.02;8.35;;;;;;;;;;5074163;28;20020;-68
2021/01/25 05:14:46;;;;;;;17.75;9.23;;;;;;;;;;5077445;28;20032;-68
2021/01/25 05:17:11;;;;;;;16.13;5.43;;;;;;;;;;5075711;28;21941;-68
2021/01/25 05:19:37;;;;;;;20.30;9.07;;;;;;;;;;5072890;28;20285;-69
2021/01/25 05:22:08;;;;;;;22.38;9.32;;;;;;;;;;5072043;28;20028;-69
2021/01/25 05:24:35;;;;;;;;;;;;;;;;;;5075941;28;20028;-66
2021/01/25 05:27:01;;;;;;;19.50;9.35;;;;;;;;;;5074657;28;19954;-67
2021/01/25 05:29:28;;;;;;;20.00;8.38;;;;;;;;;;5073956;28;20054;-67
2021/01/25 05:31:54;;;;;;;25.30;10.55;;;;;;;;;;5072484;28;20028;-68
2021/01/25 05:34:20;;;;;;;21.50;10.07;;;;;;;;;;5071895;28;20024;-68
2021/01/25 05:36:45;;;;;;;23.38;9.60;;;;;;;;;;5076917;28;20051;-68
2021/01/25 05:39:13;;;;;;;19.58;9.90;;;;;;;;;;5074405;28;20016;-68
2021/01/25 05:41:38;;;;;;;22.98;10.68;;;;;;;;;;5075076;28;20028;-68
2021/01/25 05:44:13;;;;;;;19.45;10.52;;;;;;;;;;5074713;28;20023;-67
2021/01/25 05:46:38;;;;;;;24.90;10.07;;;;;;;;;;5074370;28;20048;-68
2021/01/25 05:49:03;;;;;;;23.60;10.73;;;;;;;;;;5071829;28;20055;-68
2021/01/25 05:51:32;;;;;;;24.02;11.30;;;;;;;;;;5058040;28;20499;-68
2021/01/25 05:53:59;;;;;;;22.75;11.55;;;;;;;;;;5071703;28;20020;-68
2021/01/25 05:56:24;;;;;;;24.73;11.10;;;;;;;;;;5075233;28;20020;-68
2021/01/25 05:58:49;;;;;;;24.02;10.48;;;;;;;;;;5073759;28;20024;-68
2021/01/25 06:01:16;;;;;;;25.20;12.27;;;;;;;;;;5074659;28;20093;-68
2021/01/25 06:03:42;;;;;;;33.00;11.93;;;;;;;;;;5072489;28;20739;-68
2021/01/25 06:06:08;;;;;;;26.40;12.18;;;;;;;;;;5074518;28;20023;-67
2021/01/25 06:08:54;;;;;;;28.60;12.05;;;;;;;;;;5072836;28;20561;-67
2021/01/25 06:11:23;;;;;;;21.30;10.70;;;;;;;;;;5072145;28;20024;-67
2021/01/25 06:13:51;;;;;;;24.00;12.20;;;;;;;;;;5054986;28;20016;-68
2021/01/25 06:16:17;;;;;;;23.95;12.05;;;;;;;;;;5075137;28;20024;-67
2021/01/25 06:18:45;;;;;;;24.00;12.05;;;;;;;;;;5071198;28;21928;-67
2021/01/25 06:21:14;;;;;;;26.45;11.55;;;;;;;;;;5074166;28;20554;-67
2021/01/25 06:23:39;;;;;;;26.10;12.88;;;;;;;;;;5071026;28;20024;-67
2021/01/25 06:26:06;;;;;;;23.00;12.63;;;;;;;;;;5072812;28;20461;-67
2021/01/25 06:28:31;;;;;;;31.98;12.88;;;;;;;;;;5069094;28;20090;-67
2021/01/25 06:30:57;;;;;;;24.20;12.88;;;;;;;;;;5062888;28;20063;-69
2021/01/25 06:33:22;;;;;;;25.98;13.38;;;;;;;;;;5048055;28;20039;-67
2021/01/25 06:35:50;;;;;;;22.55;12.43;;;;;;;;;;5062190;28;20043;-67
2021/01/25 06:38:17;;;;;;;23.58;12.63;;;;;;;;;;5065640;28;20039;-67
2021/01/25 06:40:43;;;;;;;27.20;13.13;;;;;;;;;;5064123;28;20038;-68
2021/01/25 06:43:09;;;;;;;31.30;12.60;;;;;;;;;;5066612;28;20569;-68
2021/01/25 06:45:34;;;;;;;26.75;12.63;;;;;;;;;;5046511;28;20025;-68
2021/01/25 06:47:59;;;;;;;25.77;11.93;;;;;;;;;;5066169;28;20139;-68
2021/01/25 06:50:25;;;;;;;24.33;12.65;;;;;;;;;;5065749;28;20055;-68
2021/01/25 06:52:50;;;;;;;25.38;13.55;;;;;;;;;;5065459;28;20042;-68
2021/01/25 06:55:16;;;;;;;27.08;12.65;;;;;;;;;;5064437;28;20532;-68
2021/01/25 06:57:42;;;;;;;24.45;12.65;;;;;;;;;;5065204;28;20039;-68
2021/01/25 07:00:10;;;;;;;26.88;12.07;;;;;;;;;;5066347;28;20024;-68
2021/01/25 07:02:50;;;;;;;27.67;13.90;;;;;;;;;;5063204;28;20090;-68
2021/01/25 07:05:20;;;;;;;25.80;12.95;;;;;;;;;;5064510;28;20081;-68
2021/01/25 07:07:45;;;;;;;29.27;13.25;;;;;;;;;;5065801;28;20032;-68
2021/01/25 07:10:14;;;;;;;29.63;14.10;;;;;;;;;;5065286;28;20025;-68
2021/01/25 07:12:39;;;;;;;27.38;13.80;;;;;;;;;;5065353;28;20364;-68
2021/01/25 07:15:05;;;;;;;26.88;13.05;;;;;;;;;;5064683;28;20019;-66
2021/01/25 07:17:31;;;;;;;26.70;13.70;;;;;;;;;;5064753;28;20035;-66
2021/01/25 07:19:57;;;;;;;26.17;13.25;;;;;;;;;;5066641;28;20035;-66
2021/01/25 07:22:23;;;;;;;27.77;14.10;;;;;;;;;;5072390;28;21064;-68
2021/01/25 07:24:49;;;;;;;28.75;13.52;;;;;;;;;;5073110;28;20069;-68
2021/01/25 07:27:15;;;;;;;22.77;12.20;;;;;;;;;;5074807;28;20016;-67
2021/01/25 07:29:40;;;;;;;25.60;13.07;;;;;;;;;;5074607;28;20523;-68
2021/01/25 07:32:05;;;;;;;22.87;12.17;;;;;;;;;;5075289;28;20029;-68
2021/01/25 07:34:31;;;;;;;28.25;13.55;;;;;;;;;;5075239;28;20263;-68
2021/01/25 07:36:57;;;;;;;24.88;12.45;;;;;;;;;;5072428;28;20028;-68
2021/01/25 07:39:22;;;;;;;24.40;11.75;;;;;;;;;;5074319;28;20396;-68
2021/01/25 07:41:48;;;;;;;28.20;12.60;;;;;;;;;;5072336;28;20016;-67
2021/01/25 07:44:13;;;;;;;23.05;11.48;;;;;;;;;;5076118;28;20473;-68
2021/01/25 07:46:39;;;;;;;25.65;13.52;;;;;;;;;;5069972;28;20028;-67
2021/01/25 07:49:05;;;;;;;24.52;12.70;;;;;;;;;;5072390;28;20014;-67
2021/01/25 07:51:34;;;;;;;31.55;13.13;;;;;;;;;;5073683;28;20017;-67
2021/01/25 07:53:59;;;;;;;25.48;13.00;;;;;;;;;;5074909;28;20023;-67
2021/01/25 07:56:25;;;;;;;32.15;13.77;;;;;;;;;;5077033;28;20021;-67
2021/01/25 07:59:02;;;;;;;26.23;12.75;;;;;;;;;;5082876;28;20023;-67
2021/01/25 08:01:28;;;;;;;31.58;13.90;;;;;;;;;;5078419;28;20066;-67
2021/01/25 08:03:57;;;;;;;23.80;12.23;;;;;;;;;;5067312;28;20021;-67
2021/01/25 08:06:22;;;;;;;23.85;12.80;;;;;;;;;;5073620;28;20037;-67
2021/01/25 08:08:48;;;;;;;23.98;11.77;;;;;;;;;;5073030;28;20432;-68
2021/01/25 08:11:13;;;;;;;23.85;11.98;;;;;;;;;;5073225;28;20534;-68
2021/01/25 08:13:56;;;;;;;26.00;12.40;;;;;;;;;;5071798;28;20029;-68
2021/01/25 08:16:22;;;;;;;29.15;12.00;;;;;;;;;;5068357;28;20040;-68
2021/01/25 08:18:53;;;;;;;28.75;13.30;;;;;;;;;;5076822;28;20664;-68
2021/01/25 08:21:21;;;;;;;26.83;13.60;;;;;;;;;;5054762;28;20024;-68
2021/01/25 08:23:49;;;;;;;31.58;13.90;;;;;;;;;;5072390;28;20126;-68
2021/01/25 08:26:20;;;;;;;29.75;14.55;;;;;;;;;;5073367;28;20020;-68
2021/01/25 08:28:46;;;;;;;28.17;13.07;;;;;;;;;;5071897;28;20373;-67
2021/01/25 08:31:16;;;;;;;25.83;14.05;;;;;;;;;;5070894;28;20023;-68
2021/01/25 08:33:42;;;;;;;24.63;13.57;;;;;;;;;;5073186;28;20031;-68
2021/01/25 08:36:09;;;;;;;26.02;13.45;;;;;;;;;;5072621;28;20036;-68
2021/01/25 08:38:40;;;;;;;26.92;12.88;;;;;;;;;;5072876;28;21625;-68
2021/01/25 08:41:26;;;;;;;26.65;14.52;;;;;;;;;;5086038;28;20039;-68
2021/01/25 08:43:53;;;;;;;27.85;13.60;;;;;;;;;;5072937;28;20024;-68
2021/01/25 08:46:19;;;;;;;26.02;14.02;;;;;;;;;;5073790;28;20070;-68
2021/01/25 08:48:45;;;;;;;31.88;14.27;;;;;;;;;;5071832;28;20027;-68
2021/01/25 08:51:12;;;;;;;29.20;14.02;;;;;;;;;;5073524;28;20016;-68
2021/01/25 08:53:37;;;;;;;27.27;13.60;;;;;;;;;;5071539;28;20017;-68
2021/01/25 08:56:18;;;;;;;29.25;15.07;;;;;;;;;;5072359;28;20024;-68
2021/01/25 08:58:43;;;;;;;33.42;14.10;;;;;;;;;;5071596;28;20106;-68
2021/01/25 09:01:16;;;;;;;28.25;13.63;;;;;;;;;;5072992;28;20012;-72
2021/01/25 09:03:42;;;;;;;25.70;13.73;;;;;;;;;;5074986;28;20024;-68
2021/01/25 09:06:08;;;;;;;31.35;14.35;;;;;;;;;;5069538;28;20020;-68
2021/01/25 09:08:34;;;;;;;22.55;12.25;;;;;;;;;;5070616;28;20060;-68
2021/01/25 09:10:59;;;;;;;23.97;12.90;;;;;;;;;;5073572;28;20073;-68
2021/01/25 09:13:24;;;;;;;27.70;13.15;;;;;;;;;;5069707;28;20274;-68
2021/01/25 09:15:49;;;;;;;26.02;11.73;;;;;;;;;;5070935;28;20051;-68
2021/01/25 09:18:14;;;;;;;27.92;13.68;;;;;;;;;;5073609;28;20028;-68
2021/01/25 09:20:40;;;;;;;27.98;12.68;;;;;;;;;;5074101;28;20032;-68
2021/01/25 09:23:06;;;;;;;33.88;13.75;;;;;;;;;;5074186;28;20023;-68
2021/01/25 09:25:32;;;;;;;31.02;15.10;;;;;;;;;;5072024;28;20020;-68
2021/01/25 09:27:57;;;;;;;29.75;14.73;;;;;;;;;;5079583;28;20385;-68
2021/01/25 09:30:25;;;;;;;39.42;18.98;;;;;;;;;;5069818;28;20025;-68
2021/01/25 09:32:51;;;;;;;29.70;15.45;;;;;;;;;;5070754;28;20055;-68
2021/01/25 09:35:21;;;;;;;33.45;15.85;;;;;;;;;;5074823;28;20064;-68
2021/01/25 09:37:46;;;;;;;33.40;13.73;;;;;;;;;;5078751;28;20060;-68
2021/01/25 09:40:12;;;;;;;27.35;14.13;;;;;;;;;;5082287;28;20130;-68
2021/01/25 09:42:37;;;;;;;31.92;15.00;;;;;;;;;;5072291;28;20024;-68
2021/01/25 09:45:02;;;;;;;32.17;14.50;;;;;;;;;;5072935;28;20023;-68
2021/01/25 09:47:28;;;;;;;31.65;15.10;;;;;;;;;;5077474;28;20019;-68
2021/01/25 09:49:53;;;;;;;27.87;14.33;;;;;;;;;;5077711;28;20063;-68
2021/01/25 09:52:18;;;;;;;34.35;14.73;;;;;;;;;;5070179;28;20619;-68
2021/01/25 09:54:43;;;;;;;30.10;15.60;;;;;;;;;;5065291;28;20037;-68
2021/01/25 09:57:09;;;;;;;26.95;14.07;;;;;;;;;;5075355;28;20026;-68
2021/01/25 09:59:34;;;;;;;30.33;13.85;;;;;;;;;;5075537;28;20389;-68
2021/01/25 10:01:59;;;;;;;30.65;13.48;;;;;;;;;;5074538;28;20450;-68
2021/01/25 10:04:24;;;;;;;27.90;15.52;;;;;;;;;;5075227;28;20277;-68
2021/01/25 10:06:49;;;;;;;35.67;17.90;;;;;;;;;;5076073;28;20016;-68
2021/01/25 10:09:15;;;;;;;35.05;16.42;;;;;;;;;;5074136;28;20016;-68
2021/01/25 10:11:40;;;;;;;34.25;15.65;;;;;;;;;;5073353;28;20024;-68
2021/01/25 10:14:05;;;;;;;35.00;14.88;;;;;;;;;;5066454;28;20016;-68
2021/01/25 10:16:30;;;;;;;33.80;15.13;;;;;;;;;;5071539;28;20388;-68
2021/01/25 10:18:55;;;;;;;33.17;14.70;;;;;;;;;;5074804;28;20025;-68
2021/01/25 10:21:21;;;;;;;27.27;14.50;;;;;;;;;;5075913;28;20023;-68
2021/01/25 10:23:46;;;;;;;25.83;13.93;;;;;;;;;;5074119;28;20040;-68
2021/01/25 10:26:12;;;;;;;31.00;15.45;;;;;;;;;;5072162;28;20030;-68
2021/01/25 10:28:37;;;;;;;30.42;15.55;;;;;;;;;;5073601;28;20031;-68
2021/01/25 10:31:02;;;;;;;31.40;14.57;;;;;;;;;;5073952;28;20012;-68
2021/01/25 10:33:28;;;;;;;31.10;15.20;;;;;;;;;;5075085;28;20081;-68
2021/01/25 10:35:53;;;;;;;29.17;15.02;;;;;;;;;;5075379;28;20081;-68
2021/01/25 10:38:18;;;;;;;27.70;15.10;;;;;;;;;;5073335;28;20488;-68
2021/01/25 10:40:43;;;;;;;42.90;17.35;;;;;;;;;;5066409;28;20062;-68
2021/01/25 10:43:09;;;;;;;28.00;15.33;;;;;;;;;;5067848;28;20020;-68
2021/01/25 10:45:34;;;;;;;27.23;14.50;;;;;;;;;;5068975;28;20357;-68
2021/01/25 10:47:59;;;;;;;36.42;17.05;;;;;;;;;;5074844;28;20020;-69
2021/01/25 10:50:24;;;;;;;31.17;16.63;;;;;;;;;;5076427;28;20008;-69
2021/01/25 10:52:50;;;;;;;29.63;16.20;;;;;;;;;;5077688;28;20027;-68
2021/01/25 10:55:16;;;;;;;33.95;17.48;;;;;;;;;;5073863;28;20063;-68
2021/01/25 10:57:41;;;;;;;42.60;17.63;;;;;;;;;;5059075;28;20036;-68
2021/01/25 11:00:08;;;;;;;35.40;17.70;;;;;;;;;;5073613;28;20025;-68
2021/01/25 11:02:33;;;;;;;32.78;19.30;;;;;;;;;;5069741;28;20127;-68
2021/01/25 11:04:59;;;;;;;32.05;16.52;;;;;;;;;;5075811;28;20096;-69
2021/01/25 11:07:24;;;;;;;35.90;17.65;;;;;;;;;;5076695;28;20436;-68
2021/01/25 11:09:50;;;;;;;32.28;16.80;;;;;;;;;;5070364;28;20016;-69
2021/01/25 11:12:15;;;;;;;33.83;17.52;;;;;;;;;;5050692;28;20036;-69
2021/01/25 11:14:41;;;;;;;30.05;15.98;;;;;;;;;;5068736;28;20070;-68
2021/01/25 11:17:06;;;;;;;28.45;16.23;;;;;;;;;;5073123;28;20021;-68
2021/01/25 11:19:31;;;;;;;27.08;15.82;;;;;;;;;;5076047;28;20021;-69
2021/01/25 11:21:56;;;;;;;37.00;18.73;;;;;;;;;;5081079;28;20028;-69
2021/01/25 11:24:21;;;;;;;36.53;18.52;;;;;;;;;;5073895;28;20271;-69
2021/01/25 11:26:46;;;;;;;37.50;17.58;;;;;;;;;;5069397;28;20262;-69
2021/01/25 11:29:15;;;;;;;33.85;17.50;;;;;;;;;;5068380;28;20162;-69
2021/01/25 11:31:40;;;;;;;44.85;19.45;;;;;;;;;;5076072;28;20091;-69
2021/01/25 11:34:05;;;;;;;42.33;19.42;;;;;;;;;;5085784;28;20139;-69
2021/01/25 11:36:30;;;;;;;40.37;18.43;;;;;;;;;;5082780;28;20020;-68
2021/01/25 11:38:55;;;;;;;36.67;18.48;;;;;;;;;;5078666;28;20301;-68
2021/01/25 11:41:21;;;;;;;38.10;19.03;;;;;;;;;;5080652;28;20069;-69
2021/01/25 11:43:46;;;;;;;41.22;19.20;;;;;;;;;;5072196;28;20637;-68
2021/01/25 11:46:11;;;;;;;34.10;17.38;;;;;;;;;;5079312;28;20095;-68
2021/01/25 11:48:36;;;;;;;28.33;16.02;;;;;;;;;;5077596;28;20024;-69
2021/01/25 11:51:02;;;;;;;30.45;15.75;;;;;;;;;;5074953;28;20250;-68
2021/01/25 11:53:27;;;;;;;34.40;15.27;;;;;;;;;;5076244;28;20023;-68
2021/01/25 11:55:52;;;;;;;27.65;14.00;;;;;;;;;;5074558;28;20070;-68
2021/01/25 11:58:17;;;;;;;30.00;13.93;;;;;;;;;;5085754;28;21815;-68
2021/01/25 12:00:42;;;;;;;27.17;12.60;;;;;;;;;;5082028;28;20036;-68
2021/01/25 12:03:08;;;;;;;27.67;14.90;;;;;;;;;;5078535;28;20032;-68
2021/01/25 12:05:33;;;;;;;30.75;16.60;;;;;;;;;;5080927;28;20021;-69
2021/01/25 12:07:58;;;;;;;31.30;15.68;;;;;;;;;;5080470;28;20456;-69
2021/01/25 12:10:24;;;;;;;33.33;17.30;;;;;;;;;;5075279;28;20513;-69
2021/01/25 12:12:49;;;;;;;31.95;17.17;;;;;;;;;;5071917;28;20028;-69
2021/01/25 12:15:14;;;;;;;33.47;17.13;;;;;;;;;;5071517;28;20025;-69
2021/01/25 12:17:40;;;;;;;34.45;15.65;;;;;;;;;;5073090;28;20112;-69
2021/01/25 12:20:05;;;;;;;31.65;15.52;;;;;;;;;;5073373;28;20480;-69
2021/01/25 12:22:30;;;;;;;38.63;16.17;;;;;;;;;;5082977;28;20530;-69
2021/01/25 12:24:56;;;;;;;29.45;14.88;;;;;;;;;;5080387;28;20085;-69
2021/01/25 12:27:21;;;;;;;35.58;16.27;;;;;;;;;;5079406;28;20028;-69
2021/01/25 12:29:48;;;;;;;33.03;15.07;;;;;;;;;;5081015;28;20035;-69
2021/01/25 12:32:13;;;;;;;33.03;15.15;;;;;;;;;;5078433;28;20032;-69
2021/01/25 12:34:38;;;;;;;28.98;16.17;;;;;;;;;;5078560;28;20028;-70
2021/01/25 12:37:04;;;;;;;32.03;14.63;;;;;;;;;;5078149;28;20488;-70
2021/01/25 12:39:29;;;;;;;29.85;13.55;;;;;;;;;;5079820;28;20580;-70
2021/01/25 12:41:54;;;;;;;28.10;14.95;;;;;;;;;;5079742;28;20447;-70
2021/01/25 12:44:20;;;;;;;35.08;15.25;;;;;;;;;;5078490;28;20078;-70
2021/01/25 12:46:49;;;;;;;37.83;16.77;;;;;;;;;;5080390;28;20490;-69
2021/01/25 12:49:14;;;;;;;25.42;14.68;;;;;;;;;;5080273;28;20095;-70
2021/01/25 12:51:39;;;;;;;34.40;15.80;;;;;;;;;;5077486;28;20553;-70
2021/01/25 12:54:05;;;;;;;33.03;13.95;;;;;;;;;;5075768;28;20020;-69
2021/01/25 12:56:30;;;;;;;26.20;12.23;;;;;;;;;;5069336;28;20024;-69
2021/01/25 12:58:55;;;;;;;28.20;13.00;;;;;;;;;;5071292;28;20033;-70
2021/01/25 13:01:20;;;;;;;32.25;12.88;;;;;;;;;;5072023;28;20315;-70
2021/01/25 13:03:46;;;;;;;21.88;12.70;;;;;;;;;;5071493;28;20024;-70
2021/01/25 13:06:11;;;;;;;26.15;13.63;;;;;;;;;;5071625;28;20488;-70
2021/01/25 13:08:36;;;;;;;27.10;12.57;;;;;;;;;;5072038;28;20485;-70
2021/01/25 13:11:02;;;;;;;25.02;12.52;;;;;;;;;;5072186;28;20024;-70
2021/01/25 13:13:27;;;;;;;31.35;13.27;;;;;;;;;;5081695;28;20038;-70
2021/01/25 13:15:52;;;;;;;30.97;11.80;;;;;;;;;;5077751;28;20481;-70
2021/01/25 13:18:17;;;;;;;23.35;12.07;;;;;;;;;;5091452;28;20257;-70
2021/01/25 13:20:45;;;;;;;26.23;12.50;;;;;;;;;;5083235;28;20089;-70
2021/01/25 13:23:10;;;;;;;29.60;14.35;;;;;;;;;;5084501;28;20401;-70
2021/01/25 13:25:35;;;;;;;26.17;13.63;;;;;;;;;;5074423;28;20024;-70
2021/01/25 13:28:01;;;;;;;25.57;14.00;;;;;;;;;;5073869;28;20032;-69
2021/01/25 13:30:26;;;;;;;24.98;12.77;;;;;;;;;;5078599;28;20267;-70
2021/01/25 13:32:51;;;;;;;31.83;13.43;;;;;;;;;;5076055;28;20078;-70
2021/01/25 13:35:18;;;;;;;26.70;14.32;;;;;;;;;;5073692;28;20263;-70
2021/01/25 13:37:43;;;;;;;32.63;14.90;;;;;;;;;;5075187;28;20515;-70
2021/01/25 13:40:09;;;;;;;25.83;13.80;;;;;;;;;;5079414;28;20028;-70
2021/01/25 13:42:34;;;;;;;31.20;14.35;;;;;;;;;;5081591;28;20031;-70
2021/01/25 13:45:00;;;;;;;27.98;13.18;;;;;;;;;;5080103;28;20028;-70
2021/01/25 13:47:25;;;;;;;25.98;12.32;;;;;;;;;;5086035;28;20020;-70
2021/01/25 13:49:50;;;;;;;28.88;12.90;;;;;;;;;;5073660;28;20017;-69
2021/01/25 13:52:15;;;;;;;24.33;12.52;;;;;;;;;;5077858;28;20126;-70
2021/01/25 13:54:40;;;;;;;25.40;12.73;;;;;;;;;;5080907;28;20016;-70
2021/01/25 13:57:06;;;;;;;27.63;12.15;;;;;;;;;;5075117;28;20359;-69
2021/01/25 13:59:34;;;;;;;28.02;13.68;;;;;;;;;;5061110;28;20052;-70
2021/01/25 14:02:00;;;;;;;29.67;14.23;;;;;;;;;;5090820;28;20024;-69
2021/01/25 14:04:25;;;;;;;25.40;13.88;;;;;;;;;;5084384;28;20021;-69
2021/01/25 14:06:50;;;;;;;37.00;14.05;;;;;;;;;;5071781;28;20020;-70
2021/01/25 14:09:17;;;;;;;29.08;14.98;;;;;;;;;;5076759;28;20032;-70
2021/01/25 14:11:42;;;;;;;27.60;15.43;;;;;;;;;;5075859;28;20043;-70
2021/01/25 14:14:07;;;;;;;29.60;15.90;;;;;;;;;;5072804;28;20016;-70
2021/01/25 14:16:32;;;;;;;36.42;19.67;;;;;;;;;;5071421;28;20472;-69